sensor_id;sensor_type;location;lat;lon;timestamp;P1;durP1;ratioP1;P2;durP2;ratioP2
5989;SDS011;14149;53.562;10.032;2022-11-21T00:00:17;23.60;;;14.37;;
5989;SDS011;14149;53.562;10.032;2022-11-21T00:02:44;27.63;;;15.70;;
5989;SDS011;14149;53.562;10.032;2022-11-21T00:05:10;28.53;;;13.57;;
5989;SDS011;14149;53.562;10.032;2022-11-21T00:07:36;29.80;;;14.40;;
5989;SDS011;14149;53.562;10.032;2022-11-21T00:10:02;21.20;;;12.40;;
5989;SDS011;14149;53.562;10.032;2022-11-21T00:12:28;26.80;;;14.80;;
5989;SDS011;14149;53.562;10.032;2022-11-21T00:14:54;28.30;;;13.80;;
5989;SDS011;14149;53.562;10.032;2022-11-21T00:17:20;25.50;;;14.27;;
5989;SDS011;14149;53.562;10.032;2022-11-21T00:19:46;28.63;;;15.13;;
5989;SDS011;14149;53.562;10.032;2022-11-21T00:22:12;22.13;;;13.13;;
5989;SDS011;14149;53.562;10.032;2022-11-21T00:24:39;28.10;;;13.90;;
5989;SDS011;14149;53.562;10.032;2022-11-21T00:27:05;24.83;;;12.80;;
5989;SDS011;14149;53.562;10.032;2022-11-21T00:29:31;23.17;;;12.87;;
5989;SDS011;14149;53.562;10.032;2022-11-21T00:31:57;25.67;;;14.00;;
5989;SDS011;14149;53.562;10.032;2022-11-21T00:34:23;24.70;;;14.03;;
5989;SDS011;14149;53.562;10.032;2022-11-21T00:36:49;25.87;;;14.97;;
5989;SDS011;14149;53.562;10.032;2022-11-21T00:39:15;29.20;;;15.03;;
5989;SDS011;14149;53.562;10.032;2022-11-21T00:41:41;24.70;;;14.80;;
5989;SDS011;14149;53.562;10.032;2022-11-21T00:44:07;26.00;;;13.93;;
5989;SDS011;14149;53.562;10.032;2022-11-21T00:46:33;28.10;;;13.27;;
5989;SDS011;14149;53.562;10.032;2022-11-21T00:48:59;25.00;;;13.20;;
5989;SDS011;14149;53.562;10.032;2022-11-21T00:51:26;21.20;;;12.77;;
5989;SDS011;14149;53.562;10.032;2022-11-21T00:53:52;23.47;;;13.37;;
5989;SDS011;14149;53.562;10.032;2022-11-21T00:56:18;26.70;;;13.37;;
5989;SDS011;14149;53.562;10.032;2022-11-21T00:58:44;25.37;;;12.07;;
5989;SDS011;14149;53.562;10.032;2022-11-21T01:01:11;24.07;;;13.43;;
5989;SDS011;14149;53.562;10.032;2022-11-21T01:03:38;22.30;;;12.33;;
5989;SDS011;14149;53.562;10.032;2022-11-21T01:06:05;26.30;;;14.00;;
5989;SDS011;14149;53.562;10.032;2022-11-21T01:08:35;30.33;;;12.97;;
5989;SDS011;14149;53.562;10.032;2022-11-21T01:11:06;27.67;;;14.60;;
5989;SDS011;14149;53.562;10.032;2022-11-21T01:13:33;29.07;;;15.47;;
5989;SDS011;14149;53.562;10.032;2022-11-21T01:16:12;30.40;;;13.13;;
5989;SDS011;14149;53.562;10.032;2022-11-21T01:18:39;23.37;;;12.83;;
5989;SDS011;14149;53.562;10.032;2022-11-21T01:21:18;26.47;;;14.83;;
5989;SDS011;14149;53.562;10.032;2022-11-21T01:23:45;26.57;;;13.73;;
5989;SDS011;14149;53.562;10.032;2022-11-21T01:26:15;23.63;;;12.63;;
5989;SDS011;14149;53.562;10.032;2022-11-21T01:28:41;23.63;;;12.43;;
5989;SDS011;14149;53.562;10.032;2022-11-21T01:33:33;22.27;;;12.80;;
5989;SDS011;14149;53.562;10.032;2022-11-21T01:36:10;26.30;;;13.47;;
5989;SDS011;14149;53.562;10.032;2022-11-21T01:38:37;20.97;;;12.30;;
5989;SDS011;14149;53.562;10.032;2022-11-21T01:41:03;28.93;;;12.60;;
5989;SDS011;14149;53.562;10.032;2022-11-21T01:43:29;21.80;;;12.10;;
5989;SDS011;14149;53.562;10.032;2022-11-21T01:45:56;21.67;;;12.10;;
5989;SDS011;14149;53.562;10.032;2022-11-21T01:48:43;21.10;;;12.17;;
5989;SDS011;14149;53.562;10.032;2022-11-21T01:51:12;23.60;;;11.53;;
5989;SDS011;14149;53.562;10.032;2022-11-21T01:53:40;27.47;;;13.40;;
5989;SDS011;14149;53.562;10.032;2022-11-21T01:56:07;21.90;;;12.37;;
5989;SDS011;14149;53.562;10.032;2022-11-21T01:58:34;20.27;;;12.30;;
5989;SDS011;14149;53.562;10.032;2022-11-21T02:01:01;21.10;;;12.07;;
5989;SDS011;14149;53.562;10.032;2022-11-21T02:03:28;21.07;;;11.90;;
5989;SDS011;14149;53.562;10.032;2022-11-21T02:05:56;21.30;;;11.73;;
5989;SDS011;14149;53.562;10.032;2022-11-21T02:08:23;24.03;;;12.10;;
5989;SDS011;14149;53.562;10.032;2022-11-21T02:13:22;23.07;;;10.43;;
5989;SDS011;14149;53.562;10.032;2022-11-21T02:15:49;20.63;;;11.20;;
5989;SDS011;14149;53.562;10.032;2022-11-21T02:18:15;18.47;;;10.63;;
5989;SDS011;14149;53.562;10.032;2022-11-21T02:20:42;23.20;;;11.17;;
5989;SDS011;14149;53.562;10.032;2022-11-21T02:23:29;20.27;;;9.90;;
5989;SDS011;14149;53.562;10.032;2022-11-21T02:25:58;18.17;;;9.47;;
5989;SDS011;14149;53.562;10.032;2022-11-21T02:28:25;17.47;;;8.87;;
5989;SDS011;14149;53.562;10.032;2022-11-21T02:30:51;21.23;;;11.97;;
5989;SDS011;14149;53.562;10.032;2022-11-21T02:33:17;19.40;;;10.80;;
5989;SDS011;14149;53.562;10.032;2022-11-21T02:35:43;19.80;;;10.23;;
5989;SDS011;14149;53.562;10.032;2022-11-21T02:38:16;14.83;;;9.10;;
5989;SDS011;14149;53.562;10.032;2022-11-21T02:40:57;18.30;;;9.83;;
5989;SDS011;14149;53.562;10.032;2022-11-21T02:43:29;16.00;;;9.40;;
5989;SDS011;14149;53.562;10.032;2022-11-21T02:45:57;18.77;;;9.60;;
5989;SDS011;14149;53.562;10.032;2022-11-21T02:48:23;18.37;;;8.50;;
5989;SDS011;14149;53.562;10.032;2022-11-21T02:50:49;18.20;;;9.57;;
5989;SDS011;14149;53.562;10.032;2022-11-21T02:53:16;17.10;;;9.40;;
5989;SDS011;14149;53.562;10.032;2022-11-21T02:55:42;18.53;;;9.20;;
5989;SDS011;14149;53.562;10.032;2022-11-21T02:58:09;18.53;;;10.33;;
5989;SDS011;14149;53.562;10.032;2022-11-21T03:00:37;17.20;;;9.33;;
5989;SDS011;14149;53.562;10.032;2022-11-21T03:03:04;21.53;;;9.70;;
5989;SDS011;14149;53.562;10.032;2022-11-21T03:05:30;19.27;;;9.77;;
5989;SDS011;14149;53.562;10.032;2022-11-21T03:07:56;15.73;;;9.50;;
5989;SDS011;14149;53.562;10.032;2022-11-21T03:10:22;20.10;;;10.10;;
5989;SDS011;14149;53.562;10.032;2022-11-21T03:12:49;20.63;;;9.90;;
5989;SDS011;14149;53.562;10.032;2022-11-21T03:15:15;19.40;;;9.50;;
5989;SDS011;14149;53.562;10.032;2022-11-21T03:17:41;24.30;;;11.10;;
5989;SDS011;14149;53.562;10.032;2022-11-21T03:20:07;18.40;;;9.70;;
5989;SDS011;14149;53.562;10.032;2022-11-21T03:22:34;14.70;;;8.97;;
5989;SDS011;14149;53.562;10.032;2022-11-21T03:25:00;14.60;;;8.20;;
5989;SDS011;14149;53.562;10.032;2022-11-21T03:27:26;15.50;;;8.33;;
5989;SDS011;14149;53.562;10.032;2022-11-21T03:29:52;18.70;;;9.90;;
5989;SDS011;14149;53.562;10.032;2022-11-21T03:32:18;13.90;;;7.17;;
5989;SDS011;14149;53.562;10.032;2022-11-21T03:34:44;20.03;;;9.73;;
5989;SDS011;14149;53.562;10.032;2022-11-21T03:37:10;14.93;;;8.63;;
5989;SDS011;14149;53.562;10.032;2022-11-21T03:39:36;14.83;;;8.97;;
5989;SDS011;14149;53.562;10.032;2022-11-21T03:42:02;21.10;;;10.00;;
5989;SDS011;14149;53.562;10.032;2022-11-21T03:44:29;17.07;;;8.90;;
5989;SDS011;14149;53.562;10.032;2022-11-21T03:46:55;17.00;;;10.67;;
5989;SDS011;14149;53.562;10.032;2022-11-21T03:49:21;22.07;;;10.93;;
5989;SDS011;14149;53.562;10.032;2022-11-21T03:51:47;18.13;;;10.47;;
5989;SDS011;14149;53.562;10.032;2022-11-21T03:54:13;19.03;;;10.30;;
5989;SDS011;14149;53.562;10.032;2022-11-21T03:56:39;23.83;;;12.03;;
5989;SDS011;14149;53.562;10.032;2022-11-21T03:59:05;22.53;;;11.73;;
5989;SDS011;14149;53.562;10.032;2022-11-21T04:01:32;20.13;;;11.07;;
5989;SDS011;14149;53.562;10.032;2022-11-21T04:03:58;20.93;;;11.23;;
5989;SDS011;14149;53.562;10.032;2022-11-21T04:06:24;24.60;;;12.00;;
5989;SDS011;14149;53.562;10.032;2022-11-21T04:08:50;23.53;;;11.70;;
5989;SDS011;14149;53.562;10.032;2022-11-21T04:11:17;25.87;;;13.37;;
5989;SDS011;14149;53.562;10.032;2022-11-21T04:13:45;22.17;;;11.63;;
5989;SDS011;14149;53.562;10.032;2022-11-21T04:16:12;29.20;;;11.93;;
5989;SDS011;14149;53.562;10.032;2022-11-21T04:18:38;26.97;;;13.13;;
5989;SDS011;14149;53.562;10.032;2022-11-21T04:21:05;30.73;;;14.20;;
5989;SDS011;14149;53.562;10.032;2022-11-21T04:23:31;24.77;;;12.93;;
5989;SDS011;14149;53.562;10.032;2022-11-21T04:26:09;27.03;;;15.47;;
5989;SDS011;14149;53.562;10.032;2022-11-21T04:28:36;32.67;;;16.10;;
5989;SDS011;14149;53.562;10.032;2022-11-21T04:31:05;28.23;;;15.37;;
5989;SDS011;14149;53.562;10.032;2022-11-21T04:33:32;29.50;;;14.67;;
5989;SDS011;14149;53.562;10.032;2022-11-21T04:35:58;28.07;;;14.03;;
5989;SDS011;14149;53.562;10.032;2022-11-21T04:38:24;26.70;;;15.00;;
5989;SDS011;14149;53.562;10.032;2022-11-21T04:40:50;26.57;;;12.80;;
5989;SDS011;14149;53.562;10.032;2022-11-21T04:43:17;26.73;;;12.50;;
5989;SDS011;14149;53.562;10.032;2022-11-21T04:45:43;24.47;;;12.33;;
5989;SDS011;14149;53.562;10.032;2022-11-21T04:48:09;30.27;;;14.30;;
5989;SDS011;14149;53.562;10.032;2022-11-21T04:50:35;26.07;;;13.37;;
5989;SDS011;14149;53.562;10.032;2022-11-21T04:53:01;30.60;;;14.27;;
5989;SDS011;14149;53.562;10.032;2022-11-21T04:55:28;27.73;;;14.07;;
5989;SDS011;14149;53.562;10.032;2022-11-21T04:57:55;25.50;;;12.83;;
5989;SDS011;14149;53.562;10.032;2022-11-21T05:00:21;26.37;;;14.23;;
5989;SDS011;14149;53.562;10.032;2022-11-21T05:02:47;24.07;;;12.20;;
5989;SDS011;14149;53.562;10.032;2022-11-21T05:05:13;21.87;;;12.07;;
5989;SDS011;14149;53.562;10.032;2022-11-21T05:07:39;22.23;;;12.67;;
5989;SDS011;14149;53.562;10.032;2022-11-21T05:10:06;24.07;;;11.60;;
5989;SDS011;14149;53.562;10.032;2022-11-21T05:12:32;23.40;;;13.40;;
5989;SDS011;14149;53.562;10.032;2022-11-21T05:15:17;23.07;;;12.07;;
5989;SDS011;14149;53.562;10.032;2022-11-21T05:17:43;30.83;;;12.13;;
5989;SDS011;14149;53.562;10.032;2022-11-21T05:20:09;22.70;;;13.03;;
5989;SDS011;14149;53.562;10.032;2022-11-21T05:22:36;23.10;;;11.77;;
5989;SDS011;14149;53.562;10.032;2022-11-21T05:25:02;23.23;;;12.20;;
5989;SDS011;14149;53.562;10.032;2022-11-21T05:27:28;20.77;;;12.10;;
5989;SDS011;14149;53.562;10.032;2022-11-21T05:29:54;26.93;;;12.77;;
5989;SDS011;14149;53.562;10.032;2022-11-21T05:32:21;25.80;;;12.97;;
5989;SDS011;14149;53.562;10.032;2022-11-21T05:34:47;26.80;;;13.07;;
5989;SDS011;14149;53.562;10.032;2022-11-21T05:37:13;22.40;;;12.77;;
5989;SDS011;14149;53.562;10.032;2022-11-21T05:39:39;22.83;;;11.57;;
5989;SDS011;14149;53.562;10.032;2022-11-21T05:42:05;28.00;;;11.83;;
5989;SDS011;14149;53.562;10.032;2022-11-21T05:44:31;20.70;;;10.57;;
5989;SDS011;14149;53.562;10.032;2022-11-21T05:46:57;26.37;;;12.20;;
5989;SDS011;14149;53.562;10.032;2022-11-21T05:49:23;24.57;;;13.00;;
5989;SDS011;14149;53.562;10.032;2022-11-21T05:51:49;26.80;;;12.73;;
5989;SDS011;14149;53.562;10.032;2022-11-21T05:54:15;22.47;;;13.20;;
5989;SDS011;14149;53.562;10.032;2022-11-21T05:56:41;22.60;;;12.53;;
5989;SDS011;14149;53.562;10.032;2022-11-21T05:59:09;30.00;;;13.30;;
5989;SDS011;14149;53.562;10.032;2022-11-21T06:01:36;25.90;;;14.33;;
5989;SDS011;14149;53.562;10.032;2022-11-21T06:04:20;27.10;;;12.27;;
5989;SDS011;14149;53.562;10.032;2022-11-21T06:06:46;31.50;;;15.03;;
5989;SDS011;14149;53.562;10.032;2022-11-21T06:09:13;29.00;;;14.60;;
5989;SDS011;14149;53.562;10.032;2022-11-21T06:11:39;29.20;;;15.70;;
5989;SDS011;14149;53.562;10.032;2022-11-21T06:14:05;30.20;;;14.17;;
5989;SDS011;14149;53.562;10.032;2022-11-21T06:16:33;25.27;;;13.40;;
5989;SDS011;14149;53.562;10.032;2022-11-21T06:19:00;29.67;;;15.60;;
5989;SDS011;14149;53.562;10.032;2022-11-21T06:21:26;26.67;;;15.87;;
5989;SDS011;14149;53.562;10.032;2022-11-21T06:23:54;30.70;;;17.73;;
5989;SDS011;14149;53.562;10.032;2022-11-21T06:26:21;30.23;;;14.97;;
5989;SDS011;14149;53.562;10.032;2022-11-21T06:28:47;26.37;;;16.10;;
5989;SDS011;14149;53.562;10.032;2022-11-21T06:31:20;31.73;;;15.37;;
5989;SDS011;14149;53.562;10.032;2022-11-21T06:33:50;28.17;;;15.50;;
5989;SDS011;14149;53.562;10.032;2022-11-21T06:36:16;29.13;;;15.57;;
5989;SDS011;14149;53.562;10.032;2022-11-21T06:38:43;36.33;;;15.40;;
5989;SDS011;14149;53.562;10.032;2022-11-21T06:41:19;32.67;;;16.57;;
5989;SDS011;14149;53.562;10.032;2022-11-21T06:43:45;38.57;;;15.40;;
5989;SDS011;14149;53.562;10.032;2022-11-21T06:46:12;31.77;;;16.30;;
5989;SDS011;14149;53.562;10.032;2022-11-21T06:48:38;33.83;;;16.90;;
5989;SDS011;14149;53.562;10.032;2022-11-21T06:53:37;33.27;;;15.50;;
5989;SDS011;14149;53.562;10.032;2022-11-21T06:56:03;37.80;;;16.97;;
5989;SDS011;14149;53.562;10.032;2022-11-21T06:58:30;35.87;;;16.30;;
5989;SDS011;14149;53.562;10.032;2022-11-21T07:00:56;37.07;;;16.80;;
5989;SDS011;14149;53.562;10.032;2022-11-21T07:03:22;45.90;;;17.90;;
5989;SDS011;14149;53.562;10.032;2022-11-21T07:05:48;37.63;;;18.70;;
5989;SDS011;14149;53.562;10.032;2022-11-21T07:08:16;36.57;;;16.93;;
5989;SDS011;14149;53.562;10.032;2022-11-21T07:10:42;27.57;;;15.50;;
5989;SDS011;14149;53.562;10.032;2022-11-21T07:13:09;35.07;;;16.73;;
5989;SDS011;14149;53.562;10.032;2022-11-21T07:15:49;32.90;;;15.23;;
5989;SDS011;14149;53.562;10.032;2022-11-21T07:18:16;39.83;;;16.90;;
5989;SDS011;14149;53.562;10.032;2022-11-21T07:20:42;35.97;;;16.10;;
5989;SDS011;14149;53.562;10.032;2022-11-21T07:23:08;32.10;;;15.50;;
5989;SDS011;14149;53.562;10.032;2022-11-21T07:25:34;18.93;;;7.53;;
5989;SDS011;14149;53.562;10.032;2022-11-21T07:28:01;34.00;;;17.00;;
5989;SDS011;14149;53.562;10.032;2022-11-21T07:30:27;32.43;;;15.77;;
5989;SDS011;14149;53.562;10.032;2022-11-21T07:32:56;36.70;;;17.70;;
5989;SDS011;14149;53.562;10.032;2022-11-21T07:35:23;31.27;;;14.90;;
5989;SDS011;14149;53.562;10.032;2022-11-21T07:37:49;28.23;;;15.80;;
5989;SDS011;14149;53.562;10.032;2022-11-21T07:40:16;38.70;;;16.40;;
5989;SDS011;14149;53.562;10.032;2022-11-21T07:42:42;27.73;;;15.70;;
5989;SDS011;14149;53.562;10.032;2022-11-21T07:45:09;27.77;;;14.90;;
5989;SDS011;14149;53.562;10.032;2022-11-21T07:47:35;33.53;;;15.03;;
5989;SDS011;14149;53.562;10.032;2022-11-21T07:50:01;31.50;;;15.73;;
5989;SDS011;14149;53.562;10.032;2022-11-21T07:52:27;25.40;;;12.23;;
5989;SDS011;14149;53.562;10.032;2022-11-21T07:54:54;27.80;;;13.53;;
5989;SDS011;14149;53.562;10.032;2022-11-21T07:57:21;29.07;;;13.93;;
5989;SDS011;14149;53.562;10.032;2022-11-21T07:59:47;34.40;;;14.30;;
5989;SDS011;14149;53.562;10.032;2022-11-21T08:02:19;28.57;;;15.40;;
5989;SDS011;14149;53.562;10.032;2022-11-21T08:04:46;24.93;;;13.37;;
5989;SDS011;14149;53.562;10.032;2022-11-21T08:07:13;33.83;;;15.00;;
5989;SDS011;14149;53.562;10.032;2022-11-21T08:09:39;28.80;;;15.10;;
5989;SDS011;14149;53.562;10.032;2022-11-21T08:12:06;28.50;;;15.10;;
5989;SDS011;14149;53.562;10.032;2022-11-21T08:14:32;28.70;;;14.13;;
5989;SDS011;14149;53.562;10.032;2022-11-21T08:16:58;26.13;;;13.70;;
5989;SDS011;14149;53.562;10.032;2022-11-21T08:19:24;33.43;;;15.50;;
5989;SDS011;14149;53.562;10.032;2022-11-21T08:21:50;29.30;;;13.73;;
5989;SDS011;14149;53.562;10.032;2022-11-21T08:24:16;28.23;;;14.13;;
5989;SDS011;14149;53.562;10.032;2022-11-21T08:26:43;34.80;;;15.07;;
5989;SDS011;14149;53.562;10.032;2022-11-21T08:29:10;32.50;;;14.30;;
5989;SDS011;14149;53.562;10.032;2022-11-21T08:31:36;20.03;;;10.00;;
5989;SDS011;14149;53.562;10.032;2022-11-21T08:34:03;21.90;;;11.60;;
5989;SDS011;14149;53.562;10.032;2022-11-21T08:36:29;28.30;;;12.10;;
5989;SDS011;14149;53.562;10.032;2022-11-21T08:38:55;24.77;;;13.30;;
5989;SDS011;14149;53.562;10.032;2022-11-21T08:41:22;27.70;;;13.20;;
5989;SDS011;14149;53.562;10.032;2022-11-21T08:44:06;25.67;;;13.53;;
5989;SDS011;14149;53.562;10.032;2022-11-21T08:46:36;25.17;;;13.70;;
5989;SDS011;14149;53.562;10.032;2022-11-21T08:49:02;23.67;;;11.87;;
5989;SDS011;14149;53.562;10.032;2022-11-21T08:51:29;25.97;;;12.00;;
5989;SDS011;14149;53.562;10.032;2022-11-21T08:53:55;25.63;;;12.70;;
5989;SDS011;14149;53.562;10.032;2022-11-21T08:56:21;25.93;;;14.07;;
5989;SDS011;14149;53.562;10.032;2022-11-21T08:58:47;24.93;;;13.87;;
5989;SDS011;14149;53.562;10.032;2022-11-21T09:01:13;20.50;;;10.57;;
5989;SDS011;14149;53.562;10.032;2022-11-21T09:03:39;23.43;;;11.77;;
5989;SDS011;14149;53.562;10.032;2022-11-21T09:06:05;27.53;;;12.90;;
5989;SDS011;14149;53.562;10.032;2022-11-21T09:08:31;20.40;;;12.27;;
5989;SDS011;14149;53.562;10.032;2022-11-21T09:10:58;22.10;;;13.30;;
5989;SDS011;14149;53.562;10.032;2022-11-21T09:13:27;33.03;;;12.90;;
5989;SDS011;14149;53.562;10.032;2022-11-21T09:15:54;28.77;;;13.77;;
5989;SDS011;14149;53.562;10.032;2022-11-21T09:18:38;22.37;;;11.90;;
5989;SDS011;14149;53.562;10.032;2022-11-21T09:21:04;18.63;;;11.87;;
5989;SDS011;14149;53.562;10.032;2022-11-21T09:23:31;25.80;;;11.67;;
5989;SDS011;14149;53.562;10.032;2022-11-21T09:25:58;23.83;;;12.53;;
5989;SDS011;14149;53.562;10.032;2022-11-21T09:28:24;20.10;;;12.10;;
5989;SDS011;14149;53.562;10.032;2022-11-21T09:30:50;18.43;;;11.17;;
5989;SDS011;14149;53.562;10.032;2022-11-21T09:33:17;26.97;;;13.00;;
5989;SDS011;14149;53.562;10.032;2022-11-21T09:35:43;19.20;;;11.20;;
5989;SDS011;14149;53.562;10.032;2022-11-21T09:38:09;22.30;;;11.50;;
5989;SDS011;14149;53.562;10.032;2022-11-21T09:40:35;25.03;;;12.80;;
5989;SDS011;14149;53.562;10.032;2022-11-21T09:43:22;19.50;;;10.70;;
5989;SDS011;14149;53.562;10.032;2022-11-21T09:45:55;19.67;;;10.70;;
5989;SDS011;14149;53.562;10.032;2022-11-21T09:48:29;23.20;;;11.30;;
5989;SDS011;14149;53.562;10.032;2022-11-21T09:50:59;21.30;;;11.63;;
5989;SDS011;14149;53.562;10.032;2022-11-21T09:53:27;23.13;;;11.87;;
5989;SDS011;14149;53.562;10.032;2022-11-21T09:56:00;19.80;;;11.60;;
5989;SDS011;14149;53.562;10.032;2022-11-21T09:58:40;20.30;;;11.23;;
5989;SDS011;14149;53.562;10.032;2022-11-21T10:01:13;24.73;;;11.07;;
5989;SDS011;14149;53.562;10.032;2022-11-21T10:03:46;26.27;;;12.60;;
5989;SDS011;14149;53.562;10.032;2022-11-21T10:06:59;27.13;;;12.47;;
5989;SDS011;14149;53.562;10.032;2022-11-21T10:14:47;21.10;;;11.13;;
5989;SDS011;14149;53.562;10.032;2022-11-21T10:17:20;23.17;;;12.60;;
5989;SDS011;14149;53.562;10.032;2022-11-21T10:19:51;23.33;;;12.63;;
5989;SDS011;14149;53.562;10.032;2022-11-21T10:27:14;23.70;;;11.97;;
5989;SDS011;14149;53.562;10.032;2022-11-21T10:30:04;13.23;;;7.53;;
5989;SDS011;14149;53.562;10.032;2022-11-21T10:32:29;21.17;;;11.60;;
5989;SDS011;14149;53.562;10.032;2022-11-21T10:35:01;17.83;;;8.83;;
5989;SDS011;14149;53.562;10.032;2022-11-21T10:37:30;19.80;;;10.43;;
5989;SDS011;14149;53.562;10.032;2022-11-21T10:39:58;20.43;;;11.20;;
5989;SDS011;14149;53.562;10.032;2022-11-21T10:42:29;14.67;;;8.40;;
5989;SDS011;14149;53.562;10.032;2022-11-21T10:44:57;17.87;;;8.93;;
5989;SDS011;14149;53.562;10.032;2022-11-21T10:47:47;17.00;;;8.80;;
5989;SDS011;14149;53.562;10.032;2022-11-21T10:55:24;24.70;;;12.67;;
5989;SDS011;14149;53.562;10.032;2022-11-21T10:57:50;18.30;;;9.23;;
5989;SDS011;14149;53.562;10.032;2022-11-21T11:10:25;15.60;;;8.50;;
5989;SDS011;14149;53.562;10.032;2022-11-21T11:12:51;19.40;;;9.53;;
5989;SDS011;14149;53.562;10.032;2022-11-21T11:15:36;18.03;;;8.40;;
5989;SDS011;14149;53.562;10.032;2022-11-21T11:18:04;15.63;;;7.97;;
5989;SDS011;14149;53.562;10.032;2022-11-21T11:20:33;15.73;;;8.13;;
5989;SDS011;14149;53.562;10.032;2022-11-21T11:22:59;12.87;;;6.57;;
5989;SDS011;14149;53.562;10.032;2022-11-21T11:25:38;16.60;;;8.60;;
5989;SDS011;14149;53.562;10.032;2022-11-21T11:28:05;14.13;;;7.63;;
5989;SDS011;14149;53.562;10.032;2022-11-21T11:30:33;16.47;;;8.83;;
5989;SDS011;14149;53.562;10.032;2022-11-21T11:33:02;14.90;;;7.37;;
5989;SDS011;14149;53.562;10.032;2022-11-21T11:35:28;16.37;;;8.67;;
5989;SDS011;14149;53.562;10.032;2022-11-21T11:37:58;13.27;;;8.23;;
5989;SDS011;14149;53.562;10.032;2022-11-21T11:40:37;16.77;;;9.43;;
5989;SDS011;14149;53.562;10.032;2022-11-21T11:48:58;12.33;;;6.70;;
5989;SDS011;14149;53.562;10.032;2022-11-21T11:51:35;12.20;;;6.70;;
5989;SDS011;14149;53.562;10.032;2022-11-21T11:54:06;15.00;;;7.50;;
5989;SDS011;14149;53.562;10.032;2022-11-21T11:56:33;13.00;;;6.60;;
5989;SDS011;14149;53.562;10.032;2022-11-21T12:09:14;14.70;;;6.70;;
5989;SDS011;14149;53.562;10.032;2022-11-21T12:17:31;14.30;;;7.30;;
5989;SDS011;14149;53.562;10.032;2022-11-21T12:19:58;14.93;;;8.10;;
5989;SDS011;14149;53.562;10.032;2022-11-21T12:22:27;17.50;;;8.93;;
5989;SDS011;14149;53.562;10.032;2022-11-21T12:24:53;15.80;;;8.83;;
5989;SDS011;14149;53.562;10.032;2022-11-21T12:27:25;14.83;;;8.53;;
5989;SDS011;14149;53.562;10.032;2022-11-21T12:34:54;15.70;;;8.43;;
5989;SDS011;14149;53.562;10.032;2022-11-21T12:37:28;18.73;;;8.03;;
5989;SDS011;14149;53.562;10.032;2022-11-21T12:48:09;17.83;;;7.90;;
5989;SDS011;14149;53.562;10.032;2022-11-21T12:56:48;14.10;;;6.73;;
5989;SDS011;14149;53.562;10.032;2022-11-21T12:59:15;13.43;;;7.80;;
5989;SDS011;14149;53.562;10.032;2022-11-21T13:04:10;10.83;;;6.80;;
5989;SDS011;14149;53.562;10.032;2022-11-21T13:06:41;16.23;;;7.27;;
5989;SDS011;14149;53.562;10.032;2022-11-21T13:09:11;15.80;;;6.40;;
5989;SDS011;14149;53.562;10.032;2022-11-21T13:17:43;17.07;;;8.37;;
5989;SDS011;14149;53.562;10.032;2022-11-21T13:27:39;14.50;;;6.40;;
5989;SDS011;14149;53.562;10.032;2022-11-21T13:32:40;11.97;;;6.90;;
5989;SDS011;14149;53.562;10.032;2022-11-21T13:45:39;16.67;;;7.20;;
5989;SDS011;14149;53.562;10.032;2022-11-21T13:48:32;17.03;;;8.60;;
5989;SDS011;14149;53.562;10.032;2022-11-21T13:56:23;14.20;;;7.23;;
5989;SDS011;14149;53.562;10.032;2022-11-21T13:59:00;14.77;;;7.73;;
5989;SDS011;14149;53.562;10.032;2022-11-21T14:06:50;15.37;;;7.00;;
5989;SDS011;14149;53.562;10.032;2022-11-21T14:09:25;16.10;;;8.33;;
5989;SDS011;14149;53.562;10.032;2022-11-21T14:11:53;16.30;;;8.20;;
5989;SDS011;14149;53.562;10.032;2022-11-21T14:17:02;12.77;;;5.77;;
5989;SDS011;14149;53.562;10.032;2022-11-21T14:19:32;12.47;;;6.10;;
5989;SDS011;14149;53.562;10.032;2022-11-21T14:21:59;17.77;;;7.53;;
5989;SDS011;14149;53.562;10.032;2022-11-21T14:24:25;15.77;;;7.93;;
5989;SDS011;14149;53.562;10.032;2022-11-21T14:26:52;15.77;;;7.37;;
5989;SDS011;14149;53.562;10.032;2022-11-21T14:29:19;14.33;;;7.70;;
5989;SDS011;14149;53.562;10.032;2022-11-21T14:31:50;13.50;;;6.63;;
5989;SDS011;14149;53.562;10.032;2022-11-21T14:34:23;7.77;;;4.57;;
5989;SDS011;14149;53.562;10.032;2022-11-21T14:36:50;16.33;;;7.37;;
5989;SDS011;14149;53.562;10.032;2022-11-21T14:39:16;15.30;;;6.87;;
5989;SDS011;14149;53.562;10.032;2022-11-21T14:41:43;15.77;;;7.40;;
5989;SDS011;14149;53.562;10.032;2022-11-21T14:44:14;14.73;;;7.23;;
5989;SDS011;14149;53.562;10.032;2022-11-21T14:46:41;13.33;;;7.00;;
5989;SDS011;14149;53.562;10.032;2022-11-21T14:51:39;15.17;;;5.83;;
5989;SDS011;14149;53.562;10.032;2022-11-21T14:54:10;17.17;;;7.17;;
5989;SDS011;14149;53.562;10.032;2022-11-21T14:56:38;14.23;;;7.33;;
5989;SDS011;14149;53.562;10.032;2022-11-21T14:59:05;12.70;;;6.30;;
5989;SDS011;14149;53.562;10.032;2022-11-21T15:01:38;13.60;;;7.10;;
5989;SDS011;14149;53.562;10.032;2022-11-21T15:04:05;12.70;;;6.03;;
5989;SDS011;14149;53.562;10.032;2022-11-21T15:06:39;17.30;;;7.57;;
5989;SDS011;14149;53.562;10.032;2022-11-21T15:09:05;15.30;;;7.40;;
5989;SDS011;14149;53.562;10.032;2022-11-21T15:11:33;12.53;;;5.97;;
5989;SDS011;14149;53.562;10.032;2022-11-21T15:14:01;13.27;;;6.53;;
5989;SDS011;14149;53.562;10.032;2022-11-21T15:16:29;15.40;;;6.30;;
5989;SDS011;14149;53.562;10.032;2022-11-21T15:18:55;11.60;;;6.10;;
5989;SDS011;14149;53.562;10.032;2022-11-21T15:21:21;13.10;;;6.60;;
5989;SDS011;14149;53.562;10.032;2022-11-21T15:23:48;12.70;;;6.23;;
5989;SDS011;14149;53.562;10.032;2022-11-21T15:26:31;17.30;;;6.73;;
5989;SDS011;14149;53.562;10.032;2022-11-21T15:28:58;14.10;;;6.80;;
5989;SDS011;14149;53.562;10.032;2022-11-21T15:31:24;13.40;;;7.27;;
5989;SDS011;14149;53.562;10.032;2022-11-21T15:34:00;15.93;;;6.87;;
5989;SDS011;14149;53.562;10.032;2022-11-21T15:36:27;13.50;;;6.77;;
5989;SDS011;14149;53.562;10.032;2022-11-21T15:38:55;17.47;;;7.63;;
5989;SDS011;14149;53.562;10.032;2022-11-21T15:41:23;16.30;;;6.97;;
5989;SDS011;14149;53.562;10.032;2022-11-21T15:44:13;22.83;;;6.90;;
5989;SDS011;14149;53.562;10.032;2022-11-21T15:46:42;16.10;;;7.20;;
5989;SDS011;14149;53.562;10.032;2022-11-21T15:49:11;17.00;;;7.87;;
5989;SDS011;14149;53.562;10.032;2022-11-21T15:51:38;16.47;;;6.50;;
5989;SDS011;14149;53.562;10.032;2022-11-21T15:54:05;12.63;;;6.13;;
5989;SDS011;14149;53.562;10.032;2022-11-21T15:56:32;13.03;;;7.83;;
5989;SDS011;14149;53.562;10.032;2022-11-21T15:58:58;11.40;;;6.10;;
5989;SDS011;14149;53.562;10.032;2022-11-21T16:01:25;14.57;;;7.10;;
5989;SDS011;14149;53.562;10.032;2022-11-21T16:03:57;13.10;;;6.13;;
5989;SDS011;14149;53.562;10.032;2022-11-21T16:06:24;14.90;;;6.80;;
5989;SDS011;14149;53.562;10.032;2022-11-21T16:08:50;13.63;;;6.57;;
5989;SDS011;14149;53.562;10.032;2022-11-21T16:11:19;15.10;;;8.43;;
5989;SDS011;14149;53.562;10.032;2022-11-21T16:13:49;15.00;;;5.97;;
5989;SDS011;14149;53.562;10.032;2022-11-21T16:16:15;15.60;;;7.77;;
5989;SDS011;14149;53.562;10.032;2022-11-21T16:18:41;13.37;;;7.00;;
5989;SDS011;14149;53.562;10.032;2022-11-21T16:21:10;14.07;;;7.07;;
5989;SDS011;14149;53.562;10.032;2022-11-21T16:23:37;21.30;;;9.03;;
5989;SDS011;14149;53.562;10.032;2022-11-21T16:26:03;19.13;;;8.83;;
5989;SDS011;14149;53.562;10.032;2022-11-21T16:28:29;17.27;;;7.80;;
5989;SDS011;14149;53.562;10.032;2022-11-21T16:30:56;16.33;;;7.53;;